createdAt,value
2023-04-07T00:02:34.629Z,14.90
2023-04-07T00:13:02.237Z,12.25
2023-04-07T00:18:07.847Z,13.27
2023-04-07T00:23:13.383Z,13.20
2023-04-07T00:28:19.028Z,13.20
2023-04-07T00:33:24.292Z,17.13
2023-04-07T00:38:29.581Z,15.17
2023-04-07T00:43:34.911Z,15.33
2023-04-07T00:48:40.475Z,14.00
2023-04-07T00:53:45.773Z,15.32
2023-04-07T00:58:51.767Z,11.60
2023-04-07T01:04:03.916Z,13.73
2023-04-07T01:09:57.221Z,16.90
2023-04-07T01:15:08.357Z,13.73
2023-04-07T01:20:22.866Z,12.87
2023-04-07T01:25:57.603Z,14.93
2023-04-07T01:31:07.758Z,16.75
2023-04-07T01:36:14.664Z,12.88
2023-04-07T01:41:21.397Z,14.05
2023-04-07T01:46:29.801Z,13.27
2023-04-07T01:51:36.696Z,13.30
2023-04-07T01:56:43.520Z,15.73
2023-04-07T02:01:50.957Z,14.02
2023-04-07T02:07:18.708Z,15.18
2023-04-07T02:12:31.157Z,14.73
2023-04-07T02:17:50.671Z,15.07
2023-04-07T02:22:57.382Z,13.98
2023-04-07T02:28:03.960Z,12.80
2023-04-07T02:33:09.500Z,14.40
2023-04-07T02:38:14.902Z,12.57
2023-04-07T02:43:21.974Z,21.25
2023-04-07T02:48:29.567Z,18.85
2023-04-07T02:53:35.066Z,23.27
2023-04-07T02:58:41.599Z,19.67
2023-04-07T03:03:49.323Z,16.48
2023-04-07T03:08:59.562Z,16.33
2023-04-07T03:14:05.698Z,16.10
2023-04-07T03:19:15.069Z,15.50
2023-04-07T03:24:23.771Z,15.27
2023-04-07T03:29:29.719Z,14.43
2023-04-07T03:34:35.365Z,15.27
2023-04-07T03:39:42.525Z,16.63
2023-04-07T03:45:01.848Z,17.38
2023-04-07T03:50:10.023Z,17.40
2023-04-07T03:55:25.999Z,18.92
2023-04-07T04:00:36.684Z,19.27
2023-04-07T04:05:46.418Z,17.60
2023-04-07T04:10:56.945Z,19.95
2023-04-07T04:16:14.513Z,17.02
2023-04-07T04:21:22.380Z,19.67
2023-04-07T04:26:31.462Z,21.23
2023-04-07T04:31:44.998Z,19.48
2023-04-07T04:36:51.032Z,20.13
2023-04-07T04:41:59.052Z,19.17
2023-04-07T04:47:10.746Z,17.42
2023-04-07T04:52:18.407Z,22.15
2023-04-07T04:57:26.926Z,20.58
2023-04-07T05:02:33.447Z,22.98
2023-04-07T05:07:42.373Z,21.55
2023-04-07T05:12:51.138Z,22.35
2023-04-07T05:17:57.254Z,22.02
2023-04-07T05:23:05.958Z,24.80
2023-04-07T05:28:16.405Z,27.02
2023-04-07T05:33:22.645Z,37.63
2023-04-07T05:38:30.602Z,43.38
2023-04-07T05:43:41.194Z,38.85
2023-04-07T05:48:47.872Z,42.35
2023-04-07T05:53:54.823Z,37.85
2023-04-07T05:59:03.472Z,34.10
2023-04-07T06:04:09.305Z,31.13
2023-04-07T06:09:15.537Z,31.30
2023-04-07T06:14:20.937Z,29.60
2023-04-07T06:19:28.972Z,29.42
2023-04-07T06:24:34.684Z,29.02
2023-04-07T06:29:41.872Z,29.67
2023-04-07T06:34:48.779Z,32.85
2023-04-07T06:39:54.451Z,32.83
2023-04-07T06:44:59.705Z,27.55
2023-04-07T06:50:05.716Z,33.07
2023-04-07T06:55:12.695Z,33.63
2023-04-07T07:00:20.997Z,34.20
2023-04-07T07:05:26.716Z,32.10
2023-04-07T07:10:32.499Z,36.05
2023-04-07T07:20:43.139Z,29.98
2023-04-07T07:25:49.272Z,33.77
2023-04-07T07:30:55.601Z,39.78
2023-04-07T07:36:02.258Z,36.13
2023-04-07T07:41:09.693Z,36.67
2023-04-07T07:46:15.553Z,37.75
2023-04-07T07:56:26.423Z,36.08
2023-04-07T08:01:32.193Z,36.33
2023-04-07T08:06:39.660Z,37.55
2023-04-07T08:11:46.348Z,38.40
2023-04-07T08:16:52.123Z,42.75
2023-04-07T08:21:57.742Z,40.85
2023-04-07T08:27:03.980Z,41.15
2023-04-07T08:32:09.693Z,39.42
2023-04-07T08:37:15.264Z,39.30
2023-04-07T08:42:22.445Z,50.28
2023-04-07T08:47:30.110Z,46.90
2023-04-07T08:52:58.854Z,47.38
2023-04-07T08:58:06.304Z,40.00
2023-04-07T09:03:12.412Z,36.58
2023-04-07T09:08:19.049Z,31.20
2023-04-07T09:13:26.275Z,29.55
2023-04-07T09:18:32.193Z,25.50
